Welcome to Northern Hawkes Bay. New Zealand.
PWS Header
      nz Flag



Hit Counter


W3C Valid W3C Valid logo


    Wairoa

Select any of the Stations below to visit their websites.










Historic Data from Weather Underground
Select the location of interest below. Wairoa is the default. Please have patience, this Data is slow to load in.
Northern Hawkes Bay Historical Data
Daily Summary for March 15, 2017 Units:  English    Metric   Both
« Previous Day
Next Day »
Daily Weekly Monthly Yearly Custom
  High: Low: Average:
Temperature: 62.8 °F 55 °F 59.2 °F
Dew Point: 57 °F 50 °F 53.2 °F
Humidity: 95% 65% 81%
Wind Speed: 25.9mph 6mph 13.9mph
Wind Gust: 35.8mph - -
Wind- - SW
Pressure: 30.4 in 30.1 in -
Precipitation: 0.13 in    
Historical Graphs
 
 
Tabular Data for March 15, 2017
Time Temperature Dew Point Pressure Wind Wind Speed Wind Gust Humidity Rainfall Rate (Hourly) solar
00:03 57 °F 52 °F 30.1 in WSW 15.9 mph 22.8 mph 83% 0.01 in 0 W/m2
00:08 57.4 °F 51.3 °F 30.2 in SW 11.4 mph 22.8 mph 80% 0.01 in 0 W/m2
00:13 57.4 °F 51.3 °F 30.2 in SW 12.1 mph 23.5 mph 80% 0.01 in 0 W/m2
00:18 57.4 °F 50.5 °F 30.1 in SW 11.4 mph 25.9 mph 78% 0.01 in 0 W/m2
00:23 57.4 °F 50.9 °F 30.2 in WSW 11.4 mph 25.9 mph 79% 0.01 in 0 W/m2
00:28 57.4 °F 50.5 °F 30.2 in WSW 9.2 mph 25.9 mph 78% 0.01 in 0 W/m2
00:33 57.4 °F 50.9 °F 30.1 in WSW 7.6 mph 22.1 mph 79% 0.01 in 0 W/m2
00:39 57.4 °F 50.5 °F 30.1 in WSW 16.8 mph 22.8 mph 78% 0 in 0 W/m2
00:44 57.4 °F 50.2 °F 30.1 in WSW 13 mph 23.5 mph 77% 0 in 0 W/m2
00:49 57.4 °F 50.2 °F 30.2 in SW 14.5 mph 24.4 mph 77% 0 in 0 W/m2
00:54 57.4 °F 50.2 °F 30.2 in SW 12.1 mph 24.4 mph 77% 0 in 0 W/m2
00:59 57.6 °F 50.7 °F 30.1 in SW 16.8 mph 22.8 mph 78% 0 in 0 W/m2
01:04 57.7 °F 50.9 °F 30.1 in WSW 15.2 mph 28.2 mph 78% 0 in 0 W/m2
01:09 57.7 °F 50.9 °F 30.2 in WSW 18.3 mph 28.2 mph 78% 0 in 0 W/m2
01:14 57.6 °F 50.4 °F 30.2 in SW 13 mph 23.5 mph 77% 0 in 0 W/m2
01:19 57.6 °F 50.7 °F 30.1 in SW 13 mph 23.5 mph 78% 0 in 0 W/m2
01:24 57.6 °F 50.4 °F 30.2 in SW 13.6 mph 22.8 mph 77% 0 in 0 W/m2
01:29 57.6 °F 50.4 °F 30.1 in SW 13.6 mph 22.8 mph 77% 0 in 0 W/m2
01:34 57.6 °F 50.7 °F 30.2 in SW 14.5 mph 22.1 mph 78% 0 in 0 W/m2
01:39 57.6 °F 50.4 °F 30.2 in SW 13.6 mph 23.5 mph 77% 0 in 0 W/m2
01:44 57.6 °F 50.7 °F 30.2 in SW 14.5 mph 23.5 mph 78% 0 in 0 W/m2
01:49 57.6 °F 50.7 °F 30.2 in WSW 13.6 mph 22.8 mph 78% 0 in 0 W/m2
01:54 57.4 °F 50.5 °F 30.2 in SW 14.5 mph 25.1 mph 78% 0 in 0 W/m2
01:59 57.4 °F 50.5 °F 30.2 in SW 13.6 mph 25.1 mph 78% 0 in 0 W/m2
02:04 57.6 °F 51.1 °F 30.2 in SW 16.8 mph 25.1 mph 79% 0 in 0 W/m2
02:09 57.6 °F 50.7 °F 30.2 in WSW 13.6 mph 24.4 mph 78% 0 in 0 W/m2
02:14 57.6 °F 50.7 °F 30.2 in SW 9.8 mph 25.1 mph 78% 0 in 0 W/m2
02:19 57.6 °F 50.7 °F 30.2 in SW 12.1 mph 25.1 mph 78% 0 in 0 W/m2
02:24 57.6 °F 50.4 °F 30.2 in SW 12.1 mph 32.7 mph 77% 0 in 0 W/m2
02:29 57.6 °F 50.4 °F 30.2 in SW 13.6 mph 32.7 mph 77% 0 in 0 W/m2
02:34 57.7 °F 50.5 °F 30.2 in SW 15.2 mph 24.4 mph 77% 0 in 0 W/m2
02:39 57.6 °F 50.4 °F 30.2 in SW 12.1 mph 30.4 mph 77% 0 in 0 W/m2
02:44 57.6 °F 50.2 °F 30.2 in SW 18.3 mph 30.4 mph 76% 0 in 0 W/m2
02:49 57.2 °F 50.2 °F 30.2 in SW 12.1 mph 28.2 mph 77% 0 in 0 W/m2
02:54 57 °F 50.9 °F 30.2 in SW 19 mph 27.3 mph 80% 0 in 0 W/m2
02:59 56.7 °F 50.5 °F 30.2 in SW 15.2 mph 25.9 mph 80% 0 in 0 W/m2
03:04 56.3 °F 51.4 °F 30.2 in SW 13 mph 27.3 mph 84% 0 in 0 W/m2
03:09 55.4 °F 51.3 °F 30.2 in SW 11.4 mph 27.3 mph 86% 0 in 0 W/m2
03:14 55 °F 51.6 °F 30.2 in WSW 14.5 mph 26.6 mph 88% 0 in 0 W/m2
03:19 55.2 °F 51.6 °F 30.2 in WSW 22.1 mph 26.6 mph 88% 0 in 0 W/m2
03:24 55.6 °F 51.8 °F 30.2 in SW 14.5 mph 27.3 mph 87% 0 in 0 W/m2
03:29 55.4 °F 51.6 °F 30.2 in SW 19 mph 27.3 mph 87% 0 in 0 W/m2
03:34 55.6 °F 51.4 °F 30.2 in SW 14.5 mph 26.6 mph 86% 0 in 0 W/m2
03:39 55.6 °F 51.4 °F 30.2 in SW 12.1 mph 26.6 mph 86% 0 in 0 W/m2
03:44 55.9 °F 51.4 °F 30.2 in SW 11.4 mph 26.6 mph 85% 0 in 0 W/m2
03:49 55.8 °F 51.3 °F 30.2 in SW 17.4 mph 29.8 mph 85% 0 in 0 W/m2
03:54 55.6 °F 51.4 °F 30.2 in SW 13 mph 29.8 mph 86% 0 in 0 W/m2
03:59 55.6 °F 51.4 °F 30.2 in SW 17.4 mph 28.2 mph 86% 0 in 0 W/m2
04:04 55.8 °F 51.6 °F 30.2 in SW 19.7 mph 27.3 mph 86% 0.01 in 0 W/m2
04:09 55.4 °F 51.3 °F 30.2 in SW 17.4 mph 27.3 mph 86% 0.01 in 0 W/m2
04:14 55.4 °F 52 °F 30.2 in SW 19 mph 26.6 mph 88% 0.01 in 0 W/m2
04:19 55 °F 52 °F 30.2 in SW 18.3 mph 25.9 mph 89% 0.01 in 0 W/m2
04:24 55 °F 50.9 °F 30.2 in WSW 13.6 mph 25.9 mph 86% 0.01 in 0 W/m2
04:29 55.2 °F 51.1 °F 30.2 in SW 12.1 mph 28.2 mph 86% 0.01 in 0 W/m2
04:34 55.6 °F 51.4 °F 30.2 in SW 15.9 mph 28.2 mph 86% 0.01 in 0 W/m2
04:39 56.3 °F 52.2 °F 30.2 in SW 15.2 mph 25.1 mph 86% 0.01 in 0 W/m2
04:44 56.7 °F 52.2 °F 30.2 in SW 14.5 mph 24.4 mph 85% 0.01 in 0 W/m2
04:49 56.8 °F 51.6 °F 30.2 in SW 18.3 mph 26.6 mph 83% 0.02 in 0 W/m2
04:54 57.2 °F 52.2 °F 30.2 in SW 15.9 mph 30.4 mph 83% 0.02 in 0 W/m2
04:59 57 °F 52 °F 30.2 in SW 16.8 mph 30.4 mph 83% 0.02 in 0 W/m2
05:04 57.2 °F 51.4 °F 30.2 in SW 13 mph 28.9 mph 81% 0.01 in 0 W/m2
05:09 57.2 °F 51.8 °F 30.2 in SW 12.1 mph 25.9 mph 82% 0.01 in 0 W/m2
05:14 57 °F 52.5 °F 30.2 in SW 12.1 mph 25.1 mph 85% 0.01 in 0 W/m2
05:19 57.6 °F 52.9 °F 30.2 in SW 14.5 mph 22.8 mph 84% 0.01 in 0 W/m2
05:24 58.3 °F 53.2 °F 30.2 in SW 17.4 mph 24.4 mph 83% 0.01 in 0 W/m2
05:29 58.6 °F 53.2 °F 30.2 in SSW 15.9 mph 29.8 mph 82% 0.01 in 0 W/m2
05:34 57.7 °F 52 °F 30.2 in SSW 17.4 mph 29.8 mph 81% 0.01 in 0 W/m2
05:39 57 °F 52.2 °F 30.2 in SW 15.9 mph 27.3 mph 84% 0.01 in 0 W/m2
05:44 57.2 °F 52.3 °F 30.2 in SW 14.5 mph 23.5 mph 84% 0.01 in 0 W/m2
05:49 56.5 °F 52.3 °F 30.2 in SW 11.4 mph 28.2 mph 86% 0 in 0 W/m2
05:54 56.8 °F 54.3 °F 30.2 in SW 20.6 mph 31.1 mph 91% 0.01 in 0 W/m2
05:59 57.2 °F 54.3 °F 30.2 in SW 15.2 mph 31.1 mph 90% 0.01 in 0 W/m2
06:04 57.2 °F 54.3 °F 30.2 in SSW 14.5 mph 32 mph 90% 0.01 in 0 W/m2
06:09 57.7 °F 54.9 °F 30.2 in South 13.6 mph 32 mph 90% 0.01 in 0 W/m2
06:14 57.7 °F 54.1 °F 30.2 in SSW 15.2 mph 32 mph 88% 0.01 in 0 W/m2
06:19 58.5 °F 54 °F 30.2 in SW 22.8 mph 35.8 mph 85% 0.01 in 0 W/m2
06:24 58.5 °F 54 °F 30.2 in SSW 15.2 mph 35.8 mph 85% 0.01 in 0 W/m2
06:29 57.9 °F 54.3 °F 30.2 in SSW 13 mph 35.8 mph 88% 0.01 in 0 W/m2
06:34 57.6 °F 54.3 °F 30.2 in SW 19 mph 30.4 mph 89% 0.01 in 0 W/m2
06:40 57.9 °F 54.7 °F 30.2 in SW 21.3 mph 30.4 mph 89% 0.01 in 0 W/m2
06:45 58.3 °F 55.4 °F 30.2 in SW 13.6 mph 30.4 mph 90% 0.01 in 0 W/m2
06:50 58.6 °F 55 °F 30.2 in SW 14.5 mph 30.4 mph 88% 0.01 in 0 W/m2
06:56 58.8 °F 55 °F 30.2 in SSW 15.9 mph 30.4 mph 87% 0 in 0 W/m2
07:01 58.6 °F 54.9 °F 30.2 in SSW 20.6 mph 32 mph 87% 0 in 0 W/m2
07:06 58.5 °F 54.9 °F 30.2 in SSW 16.8 mph 32 mph 88% 0 in 0 W/m2
07:09 59 °F 55 °F 30.2 in SSW 13.6 mph 31.1 mph 87% 0 in 0 W/m2
07:14 59.5 °F 55 °F 30.2 in SSW 23.5 mph 35.8 mph 85% 0 in 0 W/m2
07:19 59.5 °F 55.4 °F 30.2 in SSW 16.8 mph 35.8 mph 86% 0 in 0 W/m2
07:24 59.2 °F 54.7 °F 30.2 in SSW 15.2 mph 35.8 mph 85% 0 in 2 W/m2
07:29 59.2 °F 55 °F 30.2 in SW 12.1 mph 32 mph 86% 0 in 2 W/m2
07:34 58.5 °F 54.9 °F 30.2 in SW 14.5 mph 25.1 mph 88% 0 in 2 W/m2
07:39 57.9 °F 54.7 °F 30.2 in WSW 16.8 mph 30.4 mph 89% 0 in 2 W/m2
07:44 57.9 °F 54.7 °F 30.2 in WSW 12.1 mph 30.4 mph 89% 0 in 3 W/m2
07:49 58.3 °F 55.4 °F 30.2 in SW 19.7 mph 27.3 mph 90% 0 in 7 W/m2
07:54 58.3 °F 55 °F 30.2 in SW 20.6 mph 31.1 mph 89% 0 in 7 W/m2
07:59 58.3 °F 55.4 °F 30.2 in SW 10.7 mph 31.1 mph 90% 0 in 9 W/m2
08:04 58.6 °F 55.8 °F 30.2 in SW 21.3 mph 33.6 mph 90% 0 in 10 W/m2
08:09 59 °F 54.5 °F 30.2 in SSW 21.3 mph 33.6 mph 85% 0.01 in 20 W/m2
08:14 59.4 °F 54.9 °F 30.2 in SSW 25.9 mph 31.1 mph 85% 0.01 in 13 W/m2
08:19 59.5 °F 55 °F 30.2 in SSW 18.3 mph 33.6 mph 85% 0.01 in 15 W/m2
08:24 59.2 °F 55.2 °F 30.2 in SSW 21.3 mph 33.6 mph 87% 0.02 in 57 W/m2
08:29 59.4 °F 54.9 °F 30.2 in SSW 23.5 mph 32 mph 85% 0.02 in 23 W/m2
08:34 59 °F 54.5 °F 30.2 in South 17.4 mph 32 mph 85% 0.02 in 37 W/m2
08:39 59 °F 55.8 °F 30.2 in SSW 13.6 mph 32.7 mph 89% 0.02 in 53 W/m2
08:44 58.3 °F 55.4 °F 30.2 in SSW 13 mph 32.7 mph 90% 0.02 in 34 W/m2
08:49 57.6 °F 55.2 °F 30.2 in SSW 12.1 mph 25.1 mph 92% 0.02 in 65 W/m2
08:54 57.4 °F 55.8 °F 30.2 in SW 13.6 mph 25.1 mph 94% 0.02 in 51 W/m2
08:59 57.6 °F 56.1 °F 30.2 in WSW 20.6 mph 29.8 mph 95% 0.02 in 121 W/m2
09:04 58.1 °F 56.5 °F 30.2 in SW 18.3 mph 29.8 mph 94% 0.02 in 143 W/m2
09:09 59.7 °F 56.1 °F 30.2 in SW 19 mph 29.8 mph 88% 0.01 in 414 W/m2
09:14 60.4 °F 55.6 °F 30.2 in SSW 16.8 mph 34.9 mph 84% 0.01 in 169 W/m2
09:19 60.6 °F 55.8 °F 30.2 in South 17.4 mph 34.9 mph 84% 0.01 in 374 W/m2
09:24 61.2 °F 55.6 °F 30.2 in SSE 16.8 mph 35.8 mph 82% 0 in 144 W/m2
09:29 59.7 °F 54.7 °F 30.2 in South 14.5 mph 35.8 mph 83% 0 in 98 W/m2
09:34 59.9 °F 55.8 °F 30.2 in South 14.5 mph 29.8 mph 86% 0 in 97 W/m2
09:39 60.3 °F 55 °F 30.2 in SSW 22.1 mph 32 mph 83% 0 in 194 W/m2
09:44 60.4 °F 55.6 °F 30.2 in SW 14.5 mph 32 mph 84% 0 in 87 W/m2
09:49 60.1 °F 55.6 °F 30.2 in SW 15.9 mph 28.2 mph 85% 0 in 121 W/m2
09:50 60.1 °F 55.6 °F 30.2 in SW 12.1 mph 28.2 mph 85% 0 in 109 W/m2
09:56 60.4 °F 54.9 °F 30.2 in SSW 16.8 mph 32 mph 82% 0 in 79 W/m2
10:01 60.8 °F 54.9 °F 30.2 in SSW 20.6 mph 32.7 mph 81% 0.01 in 119 W/m2
10:06 60.4 °F 54.3 °F 30.2 in SSW 14.5 mph 32.7 mph 80% 0.01 in 130 W/m2
10:11 61 °F 55 °F 30.2 in SSW 14.5 mph 32 mph 81% 0.01 in 164 W/m2
10:16 61.2 °F 54.7 °F 30.2 in SSW 15.2 mph 29.8 mph 79% 0.01 in 95 W/m2
10:21 61 °F 55 °F 30.2 in SW 14.5 mph 28.2 mph 81% 0.01 in 112 W/m2
10:26 60.8 °F 54.9 °F 30.2 in SSW 20.6 mph 30.4 mph 81% 0.01 in 184 W/m2
10:31 61.3 °F 54.9 °F 30.2 in SSW 21.3 mph 30.4 mph 79% 0.01 in 227 W/m2
10:36 61.3 °F 54.3 °F 30.3 in SSW 20.6 mph 30.4 mph 78% 0.01 in 197 W/m2
10:41 60.3 °F 55.4 °F 30.3 in SSW 13.6 mph 28.2 mph 84% 0.01 in 104 W/m2
10:46 60.1 °F 55.6 °F 30.3 in SW 14.5 mph 28.2 mph 85% 0.01 in 110 W/m2
10:51 60.4 °F 56.1 °F 30.3 in SW 19.7 mph 34.2 mph 86% 0.01 in 257 W/m2
10:56 60.6 °F 55.8 °F 30.3 in SW 15.2 mph 34.2 mph 84% 0.01 in 339 W/m2
11:01 60.3 °F 56.5 °F 30.3 in SSW 13.6 mph 31.1 mph 87% 0 in 292 W/m2
11:02 60.3 °F 56.7 °F 30.3 in SSW 13.6 mph 31.1 mph 88% 0 in 285 W/m2
11:07 60.3 °F 56.7 °F 30.3 in SW 15.9 mph 26.6 mph 88% 0 in 382 W/m2
11:12 60.6 °F 57 °F 30.3 in SSW 18.3 mph 25.1 mph 88% 0 in 285 W/m2
11:17 61 °F 55.8 °F 30.3 in SSW 19 mph 29.8 mph 83% 0 in 360 W/m2
11:22 60.3 °F 55.4 °F 30.3 in SSW 15.2 mph 29.8 mph 84% 0 in 199 W/m2
11:27 59.2 °F 55.2 °F 30.3 in SSW 13 mph 29.8 mph 87% 0 in 268 W/m2
11:32 59.9 °F 56.5 °F 30.3 in SSW 12.1 mph 25.1 mph 88% 0 in 156 W/m2
11:37 60.1 °F 56.1 °F 30.3 in SSW 13 mph 25.1 mph 87% 0 in 160 W/m2
11:42 60.3 °F 55.8 °F 30.3 in SSW 14.5 mph 25.1 mph 85% 0 in 112 W/m2
11:47 59 °F 54.5 °F 30.3 in South 9.2 mph 31.1 mph 85% 0.01 in 152 W/m2
11:52 58.8 °F 55.2 °F 30.3 in SSW 13.6 mph 31.1 mph 88% 0.01 in 148 W/m2
11:57 59.5 °F 55.9 °F 30.3 in SSW 13 mph 22.1 mph 88% 0.01 in 165 W/m2
12:02 59.9 °F 55.4 °F 30.3 in SW 12.1 mph 28.9 mph 85% 0.02 in 154 W/m2
12:07 60.1 °F 55.2 °F 30.3 in SSW 9.2 mph 28.9 mph 84% 0.02 in 89 W/m2
12:12 59.7 °F 54.7 °F 30.3 in South 18.3 mph 25.9 mph 83% 0.02 in 145 W/m2
12:17 60.3 °F 53.8 °F 30.3 in South 16.8 mph 25.9 mph 79% 0.02 in 151 W/m2
12:22 61 °F 52 °F 30.3 in South 15.9 mph 26.6 mph 72% 0.02 in 243 W/m2
12:27 61.7 °F 53.1 °F 30.3 in SSW 12.1 mph 26.6 mph 73% 0.02 in 196 W/m2
12:32 61.7 °F 51.8 °F 30.3 in SSW 22.8 mph 29.8 mph 70% 0.02 in 152 W/m2
12:37 61.7 °F 52.5 °F 30.3 in SSW 13 mph 29.8 mph 72% 0.02 in 144 W/m2
12:42 61.5 °F 52.3 °F 30.3 in SSW 18.3 mph 29.8 mph 72% 0.02 in 153 W/m2
12:47 61.2 °F 52.5 °F 30.3 in SSW 12.1 mph 28.2 mph 73% 0.01 in 183 W/m2
12:52 61.5 °F 52 °F 30.3 in SSW 18.3 mph 28.9 mph 71% 0.01 in 173 W/m2
12:57 61.7 °F 51.4 °F 30.3 in SSW 15.9 mph 28.9 mph 69% 0.01 in 156 W/m2
13:02 61.7 °F 50.2 °F 30.3 in SSW 17.4 mph 28.2 mph 66% 0 in 161 W/m2
13:07 61.9 °F 50 °F 30.3 in SSW 14.5 mph 28.2 mph 65% 0 in 214 W/m2
13:12 61.7 °F 50.5 °F 30.3 in South 11.4 mph 30.4 mph 67% 0 in 121 W/m2
13:17 61.2 °F 50.2 °F 30.3 in South 10.7 mph 30.4 mph 67% 0 in 135 W/m2
13:22 61.5 °F 51.3 °F 30.3 in South 15.9 mph 25.9 mph 69% 0 in 148 W/m2
13:27 61.9 °F 50.7 °F 30.3 in SSW 10.7 mph 25.9 mph 67% 0 in 156 W/m2
13:32 62.1 °F 50.5 °F 30.3 in SSW 12.1 mph 25.9 mph 66% 0 in 186 W/m2
13:37 62.2 °F 50.4 °F 30.3 in SSW 9.2 mph 28.9 mph 65% 0 in 212 W/m2
13:42 62.4 °F 50.9 °F 30.3 in SSW 13 mph 28.9 mph 66% 0 in 219 W/m2
13:47 62.2 °F 52.3 °F 30.3 in SW 9.8 mph 22.8 mph 70% 0 in 203 W/m2
13:52 61.3 °F 52.5 °F 30.3 in SW 13 mph 25.1 mph 73% 0 in 116 W/m2
13:57 60.6 °F 53.4 °F 30.3 in SW 17.4 mph 27.3 mph 77% 0 in 112 W/m2
14:02 60.4 °F 53.2 °F 30.3 in SSW 12.1 mph 27.3 mph 77% 0 in 124 W/m2
14:07 60.4 °F 52.5 °F 30.3 in SSW 10.7 mph 27.3 mph 75% 0 in 193 W/m2
14:12 61.2 °F 52.9 °F 30.3 in SW 13.6 mph 24.4 mph 74% 0 in 167 W/m2
14:17 61.2 °F 52.5 °F 30.3 in SW 14.5 mph 24.4 mph 73% 0 in 115 W/m2
14:22 59.9 °F 52.7 °F 30.3 in SSW 9.8 mph 24.4 mph 77% 0 in 59 W/m2
14:27 59.4 °F 53.4 °F 30.3 in SSW 14.5 mph 23.5 mph 81% 0.01 in 80 W/m2
14:32 59.7 °F 53.6 °F 30.3 in SW 13.6 mph 24.4 mph 80% 0.01 in 161 W/m2
14:37 59.7 °F 54.7 °F 30.3 in SW 19 mph 31.1 mph 83% 0.01 in 166 W/m2
14:42 59 °F 55 °F 30.3 in SSW 6.9 mph 31.1 mph 87% 0.01 in 201 W/m2
14:47 58.5 °F 55.2 °F 30.3 in SSW 11.4 mph 25.9 mph 89% 0.01 in 235 W/m2
14:52 58.8 °F 55.6 °F 30.3 in SW 11.4 mph 21.3 mph 89% 0.01 in 133 W/m2
14:57 58.8 °F 55.2 °F 30.3 in WSW 9.2 mph 21.3 mph 88% 0.01 in 188 W/m2
15:02 60.1 °F 55.2 °F 30.3 in SW 12.1 mph 21.3 mph 84% 0.01 in 231 W/m2
15:07 61 °F 54.3 °F 30.3 in SW 13.6 mph 28.2 mph 79% 0.01 in 190 W/m2
15:12 61 °F 54.1 °F 30.3 in SW 17.4 mph 28.2 mph 78% 0.01 in 220 W/m2
15:17 61 °F 53.8 °F 30.3 in SW 10.7 mph 25.1 mph 77% 0.01 in 181 W/m2
15:22 61 °F 54.3 °F 30.3 in SW 9.2 mph 25.9 mph 79% 0.01 in 129 W/m2
15:27 61 °F 54.3 °F 30.3 in WSW 14.5 mph 25.9 mph 79% 0 in 137 W/m2
15:32 60.8 °F 54.3 °F 30.3 in SW 13 mph 24.4 mph 79% 0 in 179 W/m2
15:37 60.8 °F 54.3 °F 30.3 in SSW 9.8 mph 24.4 mph 79% 0 in 187 W/m2
15:42 60.8 °F 54 °F 30.3 in SSW 10.7 mph 24.4 mph 78% 0 in 100 W/m2
15:47 60.6 °F 54.1 °F 30.3 in SW 15.2 mph 24.4 mph 79% 0 in 171 W/m2
15:52 60.8 °F 52.9 °F 30.3 in SW 13 mph 24.4 mph 75% 0 in 120 W/m2
15:57 61.2 °F 53.6 °F 30.3 in SW 17.4 mph 24.4 mph 76% 0 in 142 W/m2
16:02 61.3 °F 52.5 °F 30.3 in SW 12.1 mph 24.4 mph 73% 0 in 134 W/m2
16:07 61.9 °F 50 °F 30.3 in SSW 10.7 mph 23.5 mph 65% 0 in 172 W/m2
16:12 62.8 °F 53.6 °F 30.3 in SSW 7.6 mph 22.8 mph 72% 0 in 168 W/m2
16:17 62.6 °F 52.3 °F 30.3 in SSW 15.2 mph 22.8 mph 69% 0 in 134 W/m2
16:22 61.5 °F 52 °F 30.3 in SSW 14.5 mph 25.1 mph 71% 0 in 150 W/m2
16:27 61.3 °F 53.1 °F 30.3 in SSW 16.8 mph 25.1 mph 74% 0 in 101 W/m2
16:32 60.6 °F 52.3 °F 30.3 in SSW 12.1 mph 22.1 mph 74% 0 in 76 W/m2
16:37 59.5 °F 53.1 °F 30.3 in SSW 16.8 mph 24.4 mph 79% 0 in 92 W/m2
16:42 59 °F 54 °F 30.3 in SSW 6 mph 24.4 mph 83% 0 in 100 W/m2
16:47 59.4 °F 53.4 °F 30.3 in SSW 13 mph 23.5 mph 81% 0 in 71 W/m2
16:52 59 °F 54 °F 30.3 in SSW 8.3 mph 23.5 mph 83% 0 in 61 W/m2
16:57 58.5 °F 54 °F 30.3 in SSW 8.3 mph 21.3 mph 85% 0.01 in 45 W/m2
17:02 58.1 °F 54 °F 30.3 in SSW 9.8 mph 17.4 mph 86% 0.01 in 27 W/m2
17:07 58.1 °F 54.3 °F 30.3 in South 6.9 mph 17.4 mph 87% 0.01 in 30 W/m2
17:12 58.8 °F 54.3 °F 30.3 in South 13 mph 26.6 mph 85% 0.02 in 79 W/m2
17:17 59.4 °F 54.5 °F 30.3 in South 15.2 mph 28.2 mph 84% 0.02 in 97 W/m2
17:22 59.4 °F 54.9 °F 30.3 in South 17.4 mph 28.2 mph 85% 0.02 in 109 W/m2
17:27 59.2 °F 54 °F 30.3 in SSW 15.2 mph 28.2 mph 83% 0.02 in 104 W/m2
17:32 59.4 °F 54.5 °F 30.3 in SSW 13.6 mph 28.2 mph 84% 0.02 in 125 W/m2
17:37 59.5 °F 54.3 °F 30.3 in SSW 10.7 mph 25.9 mph 83% 0.02 in 116 W/m2
17:42 60.4 °F 54.3 °F 30.3 in SW 19.7 mph 25.9 mph 80% 0.02 in 82 W/m2
17:47 60.1 °F 52.9 °F 30.3 in SSW 17.4 mph 26.6 mph 77% 0.02 in 65 W/m2
17:53 59.9 °F 53.1 °F 30.3 in SW 13 mph 26.6 mph 78% 0.02 in 54 W/m2
17:58 60.3 °F 53.8 °F 30.3 in SW 15.2 mph 24.4 mph 79% 0.01 in 52 W/m2
18:03 60.4 °F 53.6 °F 30.3 in SW 15.9 mph 24.4 mph 78% 0.01 in 46 W/m2
18:08 60.6 °F 53.8 °F 30.3 in SW 10.7 mph 24.4 mph 78% 0.01 in 41 W/m2
18:13 60.6 °F 53.4 °F 30.3 in SSW 11.4 mph 24.4 mph 77% 0 in 44 W/m2
18:18 60.6 °F 53.4 °F 30.3 in SSW 16.8 mph 26.6 mph 77% 0 in 48 W/m2
18:23 60.4 °F 53.6 °F 30.3 in SW 11.4 mph 26.6 mph 78% 0 in 53 W/m2
18:28 60.4 °F 53.6 °F 30.3 in SW 12.1 mph 26.6 mph 78% 0 in 34 W/m2
18:33 60.3 °F 53.8 °F 30.3 in SSW 15.2 mph 24.4 mph 79% 0 in 28 W/m2
18:38 60.3 °F 53.4 °F 30.3 in SSW 13.6 mph 24.4 mph 78% 0 in 21 W/m2
18:43 60.3 °F 53.4 °F 30.3 in SW 13 mph 22.8 mph 78% 0 in 14 W/m2
18:48 60.3 °F 53.4 °F 30.3 in SW 13 mph 25.1 mph 78% 0 in 9 W/m2
18:53 60.3 °F 52.7 °F 30.3 in SW 12.1 mph 25.1 mph 76% 0 in 7 W/m2
18:58 60.3 °F 53.1 °F 30.3 in SW 16.8 mph 26.6 mph 77% 0 in 4 W/m2
19:03 60.3 °F 53.1 °F 30.3 in SSW 9.8 mph 26.6 mph 77% 0 in 4 W/m2
19:08 60.3 °F 52.7 °F 30.3 in SSW 10.7 mph 26.6 mph 76% 0 in 3 W/m2
19:13 60.3 °F 52.7 °F 30.3 in SSW 11.4 mph 25.1 mph 76% 0 in 1 W/m2
19:18 60.3 °F 52.7 °F 30.3 in SSW 14.5 mph 25.9 mph 76% 0 in 0 W/m2
19:23 59.9 °F 52.3 °F 30.3 in SSW 14.5 mph 25.9 mph 76% 0 in 0 W/m2
19:28 59.7 °F 52.2 °F 30.3 in South 18.3 mph 24.4 mph 76% 0 in 0 W/m2
19:33 60.1 °F 52.2 °F 30.3 in SSW 16.8 mph 26.6 mph 75% 0 in 0 W/m2
19:38 60.3 °F 52.3 °F 30.3 in SW 13 mph 27.3 mph 75% 0 in 0 W/m2
19:43 60.3 °F 52.3 °F 30.3 in SW 13 mph 27.3 mph 75% 0 in 0 W/m2
19:48 60.4 °F 52.5 °F 30.3 in SSW 14.5 mph 24.4 mph 75% 0 in 0 W/m2
19:53 60.4 °F 52.5 °F 30.3 in SSW 13 mph 22.8 mph 75% 0 in 0 W/m2
19:58 60.4 °F 52.5 °F 30.3 in SSW 9.2 mph 25.1 mph 75% 0 in 0 W/m2
20:03 60.4 °F 52.5 °F 30.3 in SW 13.6 mph 25.1 mph 75% 0 in 0 W/m2
20:08 60.3 °F 52.3 °F 30.3 in SSW 11.4 mph 23.5 mph 75% 0 in 0 W/m2
20:13 60.3 °F 52 °F 30.3 in SW 12.1 mph 23.5 mph 74% 0 in 0 W/m2
20:18 60.4 °F 52.2 °F 30.3 in SW 15.2 mph 23.5 mph 74% 0 in 0 W/m2
20:23 60.4 °F 51.8 °F 30.3 in SW 10.7 mph 21.3 mph 73% 0 in 0 W/m2
20:28 60.6 °F 52.3 °F 30.3 in SW 10.7 mph 20.6 mph 74% 0 in 0 W/m2
20:33 60.8 °F 51.6 °F 30.3 in SSW 13 mph 22.1 mph 72% 0 in 0 W/m2
20:37 60.8 °F 52.2 °F 30.3 in SSW 12.1 mph 22.8 mph 73% 0 in 0 W/m2
20:42 60.6 °F 52.7 °F 30.3 in South 8.3 mph 23.5 mph 75% 0 in 0 W/m2
20:47 60.6 °F 53.1 °F 30.3 in SSW 13 mph 23.5 mph 76% 0 in 0 W/m2
20:52 60.6 °F 51.3 °F 30.3 in SSW 12.1 mph 20.6 mph 71% 0 in 0 W/m2
20:57 60.3 °F 50.2 °F 30.3 in South 11.4 mph 21.3 mph 69% 0 in 0 W/m2
21:02 59.7 °F 51.8 °F 30.3 in SSW 9.2 mph 21.3 mph 75% 0 in 0 W/m2
21:07 59.5 °F 52 °F 30.3 in SSW 9.2 mph 15.9 mph 76% 0 in 0 W/m2
21:12 60.1 °F 51.8 °F 30.3 in SSW 10.7 mph 15.2 mph 74% 0 in 0 W/m2
21:17 60.3 °F 51.6 °F 30.3 in SSW 6.9 mph 19.7 mph 73% 0 in 0 W/m2
21:22 60.1 °F 51.8 °F 30.4 in SSW 10.7 mph 19.7 mph 74% 0 in 0 W/m2
21:27 60.3 °F 52.3 °F 30.4 in SSW 12.1 mph 19 mph 75% 0 in 0 W/m2
21:32 59.9 °F 52.7 °F 30.4 in SSW 16.8 mph 20.6 mph 77% 0 in 0 W/m2
21:37 59.9 °F 53.1 °F 30.4 in South 11.4 mph 20.6 mph 78% 0 in 0 W/m2
21:42 59.4 °F 53.2 °F 30.4 in South 11.4 mph 20.6 mph 80% 0 in 0 W/m2
21:47 59.2 °F 53.4 °F 30.4 in South 8.3 mph 15.9 mph 81% 0 in 0 W/m2
21:52 59.2 °F 54 °F 30.4 in South 6.9 mph 15.2 mph 83% 0 in 0 W/m2
21:57 59 °F 54 °F 30.4 in South 6 mph 15.2 mph 83% 0 in 0 W/m2
22:02 58.8 °F 54.3 °F 30.4 in SSW 7.6 mph 15.2 mph 85% 0 in 0 W/m2
22:07 59.2 °F 54 °F 30.4 in SSW 6 mph 15.2 mph 83% 0 in 0 W/m2
22:12 59.4 °F 54.5 °F 30.3 in SSW 9.8 mph 15.2 mph 84% 0 in 0 W/m2
22:17 59.2 °F 54.3 °F 30.4 in SSW 6 mph 14.5 mph 84% 0 in 0 W/m2
22:22 59.5 °F 54.3 °F 30.4 in SW 12.1 mph 18.3 mph 83% 0 in 0 W/m2
22:27 59.2 °F 54.3 °F 30.4 in SSW 8.3 mph 18.3 mph 84% 0 in 0 W/m2
22:28 59.2 °F 54.3 °F 30.4 in SSW 10.7 mph 18.3 mph 84% 0 in 0 W/m2
22:33 59 °F 54.5 °F 30.3 in SSW 9.8 mph 18.3 mph 85% 0 in 0 W/m2
22:38 59.2 °F 54.7 °F 30.4 in SW 12.1 mph 21.3 mph 85% 0 in 0 W/m2
22:43 59.2 °F 54.7 °F 30.4 in SW 9.8 mph 21.3 mph 85% 0 in 0 W/m2
22:48 59 °F 55 °F 30.4 in SW 16.8 mph 20.6 mph 87% 0 in 0 W/m2
22:53 58.8 °F 55.6 °F 30.4 in SW 7.6 mph 20.6 mph 89% 0 in 0 W/m2
22:58 58.3 °F 55 °F 30.3 in SW 9.8 mph 20.6 mph 89% 0 in 0 W/m2
23:03 58.5 °F 54.9 °F 30.3 in SW 10.7 mph 18.3 mph 88% 0 in 0 W/m2
23:08 58.5 °F 54.7 °F 30.4 in SW 12.1 mph 18.3 mph 87% 0 in 0 W/m2
23:13 58.5 °F 54.3 °F 30.3 in SW 12.1 mph 17.4 mph 86% 0 in 0 W/m2
23:18 58.5 °F 54.3 °F 30.3 in SW 9.8 mph 20.6 mph 86% 0 in 0 W/m2
23:23 58.1 °F 54.3 °F 30.4 in SW 9.2 mph 20.6 mph 87% 0 in 0 W/m2
23:28 58.1 °F 54.7 °F 30.4 in WSW 9.8 mph 15.2 mph 88% 0 in 0 W/m2
23:33 58.1 °F 54.7 °F 30.4 in SW 9.8 mph 15.2 mph 88% 0 in 0 W/m2
23:38 57.9 °F 54.3 °F 30.4 in WSW 11.4 mph 15.9 mph 88% 0 in 0 W/m2
23:43 57.9 °F 54.3 °F 30.4 in WSW 8.3 mph 15.9 mph 88% 0 in 0 W/m2
23:48 57.7 °F 54.5 °F 30.4 in SW 10.7 mph 15.2 mph 89% 0 in 0 W/m2
23:53 57.6 °F 54 °F 30.4 in SW 6.9 mph 16.8 mph 88% 0 in 0 W/m2
23:58 57.6 °F 54.3 °F 30.4 in SW 9.2 mph 16.8 mph 89% 0 in 0 W/m2
Northern Hawkes Bay. New Zealand Historic Data
Compliments of Weather Underground - 2.25 mb